sensor_id;sensor_type;location;lat;lon;timestamp;P1;durP1;ratioP1;P2;durP2;ratioP2
37241;SDS011;23135;51.078;12.108;2023-05-14T00:00:41;6.55;;;4.32;;
37241;SDS011;23135;51.078;12.108;2023-05-14T00:03:07;4.80;;;4.30;;
37241;SDS011;23135;51.078;12.108;2023-05-14T00:05:32;6.35;;;4.28;;
37241;SDS011;23135;51.078;12.108;2023-05-14T00:07:58;7.32;;;4.65;;
37241;SDS011;23135;51.078;12.108;2023-05-14T00:10:23;5.35;;;4.88;;
37241;SDS011;23135;51.078;12.108;2023-05-14T00:12:50;13.55;;;5.40;;
37241;SDS011;23135;51.078;12.108;2023-05-14T00:15:16;6.22;;;5.07;;
37241;SDS011;23135;51.078;12.108;2023-05-14T00:17:41;6.25;;;4.30;;
37241;SDS011;23135;51.078;12.108;2023-05-14T00:20:07;6.18;;;4.40;;
37241;SDS011;23135;51.078;12.108;2023-05-14T00:22:33;4.70;;;4.20;;
37241;SDS011;23135;51.078;12.108;2023-05-14T00:25:01;5.93;;;4.78;;
37241;SDS011;23135;51.078;12.108;2023-05-14T00:27:26;5.70;;;3.85;;
37241;SDS011;23135;51.078;12.108;2023-05-14T00:29:52;7.82;;;4.05;;
37241;SDS011;23135;51.078;12.108;2023-05-14T00:32:17;5.43;;;4.70;;
37241;SDS011;23135;51.078;12.108;2023-05-14T00:34:43;7.32;;;4.05;;
37241;SDS011;23135;51.078;12.108;2023-05-14T00:37:09;5.75;;;4.55;;
37241;SDS011;23135;51.078;12.108;2023-05-14T00:39:34;9.27;;;4.50;;
37241;SDS011;23135;51.078;12.108;2023-05-14T00:42:00;9.02;;;3.85;;
37241;SDS011;23135;51.078;12.108;2023-05-14T00:44:25;7.95;;;4.60;;
37241;SDS011;23135;51.078;12.108;2023-05-14T00:46:51;5.28;;;4.35;;
37241;SDS011;23135;51.078;12.108;2023-05-14T00:49:17;7.97;;;4.93;;
37241;SDS011;23135;51.078;12.108;2023-05-14T00:51:43;10.57;;;4.55;;
37241;SDS011;23135;51.078;12.108;2023-05-14T00:54:13;7.45;;;4.85;;
37241;SDS011;23135;51.078;12.108;2023-05-14T00:56:39;6.97;;;4.80;;
37241;SDS011;23135;51.078;12.108;2023-05-14T00:59:05;9.00;;;4.75;;
37241;SDS011;23135;51.078;12.108;2023-05-14T01:01:30;9.25;;;5.13;;
37241;SDS011;23135;51.078;12.108;2023-05-14T01:03:56;6.13;;;4.40;;
37241;SDS011;23135;51.078;12.108;2023-05-14T01:06:33;6.43;;;4.60;;
37241;SDS011;23135;51.078;12.108;2023-05-14T01:09:17;11.02;;;4.13;;
37241;SDS011;23135;51.078;12.108;2023-05-14T01:14:20;7.18;;;5.07;;
37241;SDS011;23135;51.078;12.108;2023-05-14T01:16:47;9.32;;;5.18;;
37241;SDS011;23135;51.078;12.108;2023-05-14T01:19:31;6.28;;;5.25;;
37241;SDS011;23135;51.078;12.108;2023-05-14T01:22:05;5.93;;;4.57;;
37241;SDS011;23135;51.078;12.108;2023-05-14T01:24:31;7.82;;;5.15;;
37241;SDS011;23135;51.078;12.108;2023-05-14T01:27:07;6.10;;;4.65;;
37241;SDS011;23135;51.078;12.108;2023-05-14T01:29:55;6.05;;;5.20;;
37241;SDS011;23135;51.078;12.108;2023-05-14T01:32:27;5.65;;;4.90;;
37241;SDS011;23135;51.078;12.108;2023-05-14T01:34:55;5.40;;;4.90;;
37241;SDS011;23135;51.078;12.108;2023-05-14T01:37:24;7.70;;;5.05;;
37241;SDS011;23135;51.078;12.108;2023-05-14T01:39:51;7.57;;;6.20;;
37241;SDS011;23135;51.078;12.108;2023-05-14T01:42:18;8.10;;;5.38;;
37241;SDS011;23135;51.078;12.108;2023-05-14T01:44:44;12.95;;;6.20;;
37241;SDS011;23135;51.078;12.108;2023-05-14T01:47:09;7.05;;;5.18;;
37241;SDS011;23135;51.078;12.108;2023-05-14T01:49:35;7.70;;;5.10;;
37241;SDS011;23135;51.078;12.108;2023-05-14T01:52:01;5.70;;;5.00;;
37241;SDS011;23135;51.078;12.108;2023-05-14T01:54:26;10.55;;;5.93;;
37241;SDS011;23135;51.078;12.108;2023-05-14T01:56:52;11.00;;;4.82;;
37241;SDS011;23135;51.078;12.108;2023-05-14T01:59:18;8.63;;;5.75;;
37241;SDS011;23135;51.078;12.108;2023-05-14T02:01:43;14.95;;;5.65;;
37241;SDS011;23135;51.078;12.108;2023-05-14T02:04:09;8.82;;;5.28;;
37241;SDS011;23135;51.078;12.108;2023-05-14T02:06:34;7.97;;;5.55;;
37241;SDS011;23135;51.078;12.108;2023-05-14T02:09:00;10.90;;;5.20;;
37241;SDS011;23135;51.078;12.108;2023-05-14T02:11:27;6.45;;;5.45;;
37241;SDS011;23135;51.078;12.108;2023-05-14T02:13:53;7.45;;;6.07;;
37241;SDS011;23135;51.078;12.108;2023-05-14T02:16:18;11.57;;;5.95;;
37241;SDS011;23135;51.078;12.108;2023-05-14T02:18:44;13.80;;;6.95;;
37241;SDS011;23135;51.078;12.108;2023-05-14T02:21:09;10.70;;;6.35;;
37241;SDS011;23135;51.078;12.108;2023-05-14T02:23:35;7.70;;;6.05;;
37241;SDS011;23135;51.078;12.108;2023-05-14T02:26:01;10.93;;;6.88;;
37241;SDS011;23135;51.078;12.108;2023-05-14T02:28:26;6.82;;;5.72;;
37241;SDS011;23135;51.078;12.108;2023-05-14T02:30:56;10.57;;;6.30;;
37241;SDS011;23135;51.078;12.108;2023-05-14T02:33:23;9.97;;;6.67;;
37241;SDS011;23135;51.078;12.108;2023-05-14T02:35:49;8.38;;;6.55;;
37241;SDS011;23135;51.078;12.108;2023-05-14T02:38:14;10.25;;;6.57;;
37241;SDS011;23135;51.078;12.108;2023-05-14T02:40:40;8.13;;;6.22;;
37241;SDS011;23135;51.078;12.108;2023-05-14T02:43:05;6.45;;;5.85;;
37241;SDS011;23135;51.078;12.108;2023-05-14T02:45:31;9.05;;;7.00;;
37241;SDS011;23135;51.078;12.108;2023-05-14T02:47:56;11.88;;;7.43;;
37241;SDS011;23135;51.078;12.108;2023-05-14T02:50:22;12.55;;;8.15;;
37241;SDS011;23135;51.078;12.108;2023-05-14T02:52:47;14.60;;;6.65;;
37241;SDS011;23135;51.078;12.108;2023-05-14T02:55:13;10.80;;;7.35;;
37241;SDS011;23135;51.078;12.108;2023-05-14T02:57:38;10.88;;;7.35;;
37241;SDS011;23135;51.078;12.108;2023-05-14T03:00:04;15.20;;;6.90;;
37241;SDS011;23135;51.078;12.108;2023-05-14T03:02:30;14.57;;;6.65;;
37241;SDS011;23135;51.078;12.108;2023-05-14T03:04:56;6.50;;;5.78;;
37241;SDS011;23135;51.078;12.108;2023-05-14T03:07:21;8.70;;;6.28;;
37241;SDS011;23135;51.078;12.108;2023-05-14T03:09:47;9.40;;;5.85;;
37241;SDS011;23135;51.078;12.108;2023-05-14T03:12:12;5.65;;;5.13;;
37241;SDS011;23135;51.078;12.108;2023-05-14T03:14:38;9.20;;;5.97;;
37241;SDS011;23135;51.078;12.108;2023-05-14T03:17:04;10.43;;;6.65;;
37241;SDS011;23135;51.078;12.108;2023-05-14T03:19:29;9.55;;;6.50;;
37241;SDS011;23135;51.078;12.108;2023-05-14T03:21:55;7.95;;;6.60;;
37241;SDS011;23135;51.078;12.108;2023-05-14T03:24:20;7.45;;;6.03;;
37241;SDS011;23135;51.078;12.108;2023-05-14T03:26:46;12.98;;;7.10;;
37241;SDS011;23135;51.078;12.108;2023-05-14T03:29:11;8.88;;;6.60;;
37241;SDS011;23135;51.078;12.108;2023-05-14T03:31:37;8.60;;;6.68;;
37241;SDS011;23135;51.078;12.108;2023-05-14T03:34:03;13.27;;;7.03;;
37241;SDS011;23135;51.078;12.108;2023-05-14T03:36:28;11.73;;;7.18;;
37241;SDS011;23135;51.078;12.108;2023-05-14T03:38:54;11.57;;;6.95;;
37241;SDS011;23135;51.078;12.108;2023-05-14T03:41:19;9.75;;;6.25;;
37241;SDS011;23135;51.078;12.108;2023-05-14T03:43:46;8.73;;;6.82;;
37241;SDS011;23135;51.078;12.108;2023-05-14T03:46:12;10.48;;;6.50;;
37241;SDS011;23135;51.078;12.108;2023-05-14T03:48:37;13.88;;;7.32;;
37241;SDS011;23135;51.078;12.108;2023-05-14T03:51:03;10.45;;;7.60;;
37241;SDS011;23135;51.078;12.108;2023-05-14T03:53:29;10.10;;;7.68;;
37241;SDS011;23135;51.078;12.108;2023-05-14T03:55:54;8.23;;;7.43;;
37241;SDS011;23135;51.078;12.108;2023-05-14T03:58:20;13.02;;;7.57;;
37241;SDS011;23135;51.078;12.108;2023-05-14T04:00:46;19.45;;;9.13;;
37241;SDS011;23135;51.078;12.108;2023-05-14T04:03:11;12.10;;;7.47;;
37241;SDS011;23135;51.078;12.108;2023-05-14T04:05:37;14.65;;;8.20;;
37241;SDS011;23135;51.078;12.108;2023-05-14T04:08:03;10.07;;;7.13;;
37241;SDS011;23135;51.078;12.108;2023-05-14T04:10:28;8.10;;;6.80;;
37241;SDS011;23135;51.078;12.108;2023-05-14T04:12:56;9.35;;;8.02;;
37241;SDS011;23135;51.078;12.108;2023-05-14T04:15:21;8.60;;;7.70;;
37241;SDS011;23135;51.078;12.108;2023-05-14T04:17:47;13.02;;;8.15;;
37241;SDS011;23135;51.078;12.108;2023-05-14T04:20:12;12.70;;;8.02;;
37241;SDS011;23135;51.078;12.108;2023-05-14T04:22:38;11.00;;;7.05;;
37241;SDS011;23135;51.078;12.108;2023-05-14T04:25:04;10.38;;;7.97;;
37241;SDS011;23135;51.078;12.108;2023-05-14T04:27:31;9.20;;;6.50;;
37241;SDS011;23135;51.078;12.108;2023-05-14T04:29:57;11.00;;;7.45;;
37241;SDS011;23135;51.078;12.108;2023-05-14T04:32:22;10.38;;;7.45;;
37241;SDS011;23135;51.078;12.108;2023-05-14T04:34:48;12.05;;;6.90;;
37241;SDS011;23135;51.078;12.108;2023-05-14T04:37:14;8.55;;;6.35;;
37241;SDS011;23135;51.078;12.108;2023-05-14T04:39:39;7.93;;;7.13;;
37241;SDS011;23135;51.078;12.108;2023-05-14T04:42:05;10.57;;;6.72;;
37241;SDS011;23135;51.078;12.108;2023-05-14T04:44:32;9.85;;;7.47;;
37241;SDS011;23135;51.078;12.108;2023-05-14T04:46:58;9.43;;;7.22;;
37241;SDS011;23135;51.078;12.108;2023-05-14T04:49:24;9.70;;;6.63;;
37241;SDS011;23135;51.078;12.108;2023-05-14T04:51:50;9.32;;;6.63;;
37241;SDS011;23135;51.078;12.108;2023-05-14T04:54:16;9.48;;;7.40;;
37241;SDS011;23135;51.078;12.108;2023-05-14T04:56:41;11.55;;;7.10;;
37241;SDS011;23135;51.078;12.108;2023-05-14T04:59:07;10.00;;;5.95;;
37241;SDS011;23135;51.078;12.108;2023-05-14T05:01:33;8.18;;;6.53;;
37241;SDS011;23135;51.078;12.108;2023-05-14T05:03:58;12.90;;;6.45;;
37241;SDS011;23135;51.078;12.108;2023-05-14T05:06:24;9.52;;;6.57;;
37241;SDS011;23135;51.078;12.108;2023-05-14T05:08:49;10.43;;;6.30;;
37241;SDS011;23135;51.078;12.108;2023-05-14T05:11:15;8.70;;;6.47;;
37241;SDS011;23135;51.078;12.108;2023-05-14T05:13:40;9.20;;;6.28;;
37241;SDS011;23135;51.078;12.108;2023-05-14T05:16:06;10.95;;;6.70;;
37241;SDS011;23135;51.078;12.108;2023-05-14T05:18:32;12.85;;;5.90;;
37241;SDS011;23135;51.078;12.108;2023-05-14T05:20:57;13.38;;;7.22;;
37241;SDS011;23135;51.078;12.108;2023-05-14T05:23:23;9.32;;;6.40;;
37241;SDS011;23135;51.078;12.108;2023-05-14T05:25:49;7.13;;;6.28;;
37241;SDS011;23135;51.078;12.108;2023-05-14T05:28:15;10.10;;;6.00;;
37241;SDS011;23135;51.078;12.108;2023-05-14T05:30:40;7.93;;;6.68;;
37241;SDS011;23135;51.078;12.108;2023-05-14T05:33:08;6.63;;;5.97;;
37241;SDS011;23135;51.078;12.108;2023-05-14T05:35:34;10.77;;;6.13;;
37241;SDS011;23135;51.078;12.108;2023-05-14T05:38:00;16.65;;;5.75;;
37241;SDS011;23135;51.078;12.108;2023-05-14T05:40:25;7.00;;;5.18;;
37241;SDS011;23135;51.078;12.108;2023-05-14T05:42:51;11.57;;;5.30;;
37241;SDS011;23135;51.078;12.108;2023-05-14T05:45:16;5.15;;;4.65;;
37241;SDS011;23135;51.078;12.108;2023-05-14T05:47:42;13.40;;;5.70;;
37241;SDS011;23135;51.078;12.108;2023-05-14T05:50:08;8.63;;;5.38;;
37241;SDS011;23135;51.078;12.108;2023-05-14T05:52:34;8.30;;;5.18;;
37241;SDS011;23135;51.078;12.108;2023-05-14T05:54:59;4.32;;;3.92;;
37241;SDS011;23135;51.078;12.108;2023-05-14T05:57:25;6.68;;;4.65;;
37241;SDS011;23135;51.078;12.108;2023-05-14T05:59:51;8.55;;;4.78;;
37241;SDS011;23135;51.078;12.108;2023-05-14T06:02:17;9.85;;;5.05;;
37241;SDS011;23135;51.078;12.108;2023-05-14T06:04:43;6.13;;;5.28;;
37241;SDS011;23135;51.078;12.108;2023-05-14T06:07:09;5.55;;;4.88;;
37241;SDS011;23135;51.078;12.108;2023-05-14T06:09:34;4.82;;;4.32;;
37241;SDS011;23135;51.078;12.108;2023-05-14T06:12:00;6.72;;;4.78;;
37241;SDS011;23135;51.078;12.108;2023-05-14T06:14:25;8.38;;;4.50;;
37241;SDS011;23135;51.078;12.108;2023-05-14T06:16:51;6.22;;;4.22;;
37241;SDS011;23135;51.078;12.108;2023-05-14T06:19:17;5.65;;;4.05;;
37241;SDS011;23135;51.078;12.108;2023-05-14T06:21:42;5.20;;;4.60;;
37241;SDS011;23135;51.078;12.108;2023-05-14T06:24:08;5.82;;;4.40;;
37241;SDS011;23135;51.078;12.108;2023-05-14T06:26:34;9.65;;;4.43;;
37241;SDS011;23135;51.078;12.108;2023-05-14T06:28:59;5.07;;;3.65;;
37241;SDS011;23135;51.078;12.108;2023-05-14T06:31:25;3.75;;;3.45;;
37241;SDS011;23135;51.078;12.108;2023-05-14T06:33:50;6.00;;;3.60;;
37241;SDS011;23135;51.078;12.108;2023-05-14T06:36:16;6.55;;;3.50;;
37241;SDS011;23135;51.078;12.108;2023-05-14T06:38:42;3.83;;;3.50;;
37241;SDS011;23135;51.078;12.108;2023-05-14T06:41:07;5.47;;;3.38;;
37241;SDS011;23135;51.078;12.108;2023-05-14T06:43:33;7.05;;;4.60;;
37241;SDS011;23135;51.078;12.108;2023-05-14T06:45:58;3.55;;;3.25;;
37241;SDS011;23135;51.078;12.108;2023-05-14T06:48:25;4.75;;;4.10;;
37241;SDS011;23135;51.078;12.108;2023-05-14T06:50:53;3.55;;;3.28;;
37241;SDS011;23135;51.078;12.108;2023-05-14T06:53:19;5.65;;;3.40;;
37241;SDS011;23135;51.078;12.108;2023-05-14T06:55:48;5.30;;;3.63;;
37241;SDS011;23135;51.078;12.108;2023-05-14T06:58:14;4.35;;;4.05;;
37241;SDS011;23135;51.078;12.108;2023-05-14T07:00:40;4.30;;;3.78;;
37241;SDS011;23135;51.078;12.108;2023-05-14T07:03:06;3.90;;;3.60;;
37241;SDS011;23135;51.078;12.108;2023-05-14T07:05:32;4.10;;;3.25;;
37241;SDS011;23135;51.078;12.108;2023-05-14T07:07:58;4.85;;;4.15;;
37241;SDS011;23135;51.078;12.108;2023-05-14T07:10:23;4.70;;;2.90;;
37241;SDS011;23135;51.078;12.108;2023-05-14T07:12:49;6.25;;;3.13;;
37241;SDS011;23135;51.078;12.108;2023-05-14T07:15:14;3.35;;;3.00;;
37241;SDS011;23135;51.078;12.108;2023-05-14T07:17:40;3.42;;;3.20;;
37241;SDS011;23135;51.078;12.108;2023-05-14T07:20:06;7.32;;;2.90;;
37241;SDS011;23135;51.078;12.108;2023-05-14T07:22:32;3.88;;;2.80;;
37241;SDS011;23135;51.078;12.108;2023-05-14T07:24:57;4.30;;;2.95;;
37241;SDS011;23135;51.078;12.108;2023-05-14T07:27:23;3.95;;;3.00;;
37241;SDS011;23135;51.078;12.108;2023-05-14T07:29:49;4.47;;;3.42;;
37241;SDS011;23135;51.078;12.108;2023-05-14T07:32:15;5.20;;;2.65;;
37241;SDS011;23135;51.078;12.108;2023-05-14T07:34:40;4.35;;;2.42;;
37241;SDS011;23135;51.078;12.108;2023-05-14T07:37:06;3.15;;;2.53;;
37241;SDS011;23135;51.078;12.108;2023-05-14T07:39:32;4.97;;;2.30;;
37241;SDS011;23135;51.078;12.108;2023-05-14T07:41:57;2.22;;;2.08;;
37241;SDS011;23135;51.078;12.108;2023-05-14T07:44:24;4.57;;;2.03;;
37241;SDS011;23135;51.078;12.108;2023-05-14T07:46:49;5.15;;;2.25;;
37241;SDS011;23135;51.078;12.108;2023-05-14T07:49:15;3.97;;;2.30;;
37241;SDS011;23135;51.078;12.108;2023-05-14T07:51:41;6.03;;;2.80;;
37241;SDS011;23135;51.078;12.108;2023-05-14T07:54:06;3.03;;;2.50;;
37241;SDS011;23135;51.078;12.108;2023-05-14T07:56:32;2.65;;;2.45;;
37241;SDS011;23135;51.078;12.108;2023-05-14T07:58:57;6.43;;;1.98;;
37241;SDS011;23135;51.078;12.108;2023-05-14T08:01:23;3.22;;;2.00;;
37241;SDS011;23135;51.078;12.108;2023-05-14T08:03:49;2.38;;;2.15;;
37241;SDS011;23135;51.078;12.108;2023-05-14T08:06:14;5.03;;;2.63;;
37241;SDS011;23135;51.078;12.108;2023-05-14T08:08:40;2.53;;;1.85;;
37241;SDS011;23135;51.078;12.108;2023-05-14T08:11:06;2.35;;;1.95;;
37241;SDS011;23135;51.078;12.108;2023-05-14T08:13:31;2.72;;;2.53;;
37241;SDS011;23135;51.078;12.108;2023-05-14T08:15:57;2.50;;;2.30;;
37241;SDS011;23135;51.078;12.108;2023-05-14T08:18:22;1.77;;;1.75;;
37241;SDS011;23135;51.078;12.108;2023-05-14T08:20:48;3.10;;;1.98;;
37241;SDS011;23135;51.078;12.108;2023-05-14T08:23:13;4.10;;;2.60;;
37241;SDS011;23135;51.078;12.108;2023-05-14T08:25:39;2.22;;;2.13;;
37241;SDS011;23135;51.078;12.108;2023-05-14T08:28:05;3.10;;;2.15;;
37241;SDS011;23135;51.078;12.108;2023-05-14T08:30:31;4.78;;;2.35;;
37241;SDS011;23135;51.078;12.108;2023-05-14T08:32:57;5.97;;;2.40;;
37241;SDS011;23135;51.078;12.108;2023-05-14T08:35:23;3.75;;;2.30;;
37241;SDS011;23135;51.078;12.108;2023-05-14T08:37:48;2.20;;;2.05;;
37241;SDS011;23135;51.078;12.108;2023-05-14T08:40:15;2.40;;;1.90;;
37241;SDS011;23135;51.078;12.108;2023-05-14T08:42:41;2.65;;;1.77;;
37241;SDS011;23135;51.078;12.108;2023-05-14T08:45:30;4.95;;;1.85;;
37241;SDS011;23135;51.078;12.108;2023-05-14T08:47:58;3.63;;;1.90;;
37241;SDS011;23135;51.078;12.108;2023-05-14T08:50:24;1.98;;;1.88;;
37241;SDS011;23135;51.078;12.108;2023-05-14T08:52:50;1.88;;;1.65;;
37241;SDS011;23135;51.078;12.108;2023-05-14T08:55:17;1.83;;;1.73;;
37241;SDS011;23135;51.078;12.108;2023-05-14T08:57:43;4.13;;;1.75;;
37241;SDS011;23135;51.078;12.108;2023-05-14T09:00:10;2.20;;;2.08;;
37241;SDS011;23135;51.078;12.108;2023-05-14T09:02:36;4.25;;;1.88;;
37241;SDS011;23135;51.078;12.108;2023-05-14T09:05:06;4.63;;;2.35;;
37241;SDS011;23135;51.078;12.108;2023-05-14T09:07:33;2.17;;;1.85;;
37241;SDS011;23135;51.078;12.108;2023-05-14T09:09:59;3.33;;;2.38;;
37241;SDS011;23135;51.078;12.108;2023-05-14T09:12:26;3.55;;;2.13;;
37241;SDS011;23135;51.078;12.108;2023-05-14T09:14:51;5.38;;;2.30;;
37241;SDS011;23135;51.078;12.108;2023-05-14T09:17:17;2.15;;;1.95;;
37241;SDS011;23135;51.078;12.108;2023-05-14T09:19:45;5.47;;;2.13;;
37241;SDS011;23135;51.078;12.108;2023-05-14T09:22:16;2.20;;;2.00;;
37241;SDS011;23135;51.078;12.108;2023-05-14T09:24:42;7.72;;;2.20;;
37241;SDS011;23135;51.078;12.108;2023-05-14T09:27:09;2.13;;;2.00;;
37241;SDS011;23135;51.078;12.108;2023-05-14T09:29:42;2.60;;;2.40;;
37241;SDS011;23135;51.078;12.108;2023-05-14T09:32:07;5.72;;;2.50;;
37241;SDS011;23135;51.078;12.108;2023-05-14T09:34:34;2.75;;;2.10;;
37241;SDS011;23135;51.078;12.108;2023-05-14T09:37:04;2.45;;;2.28;;
37241;SDS011;23135;51.078;12.108;2023-05-14T09:39:31;5.93;;;3.13;;
37241;SDS011;23135;51.078;12.108;2023-05-14T09:41:58;4.60;;;2.50;;
37241;SDS011;23135;51.078;12.108;2023-05-14T09:44:23;2.78;;;2.30;;
37241;SDS011;23135;51.078;12.108;2023-05-14T09:46:50;6.50;;;2.70;;
37241;SDS011;23135;51.078;12.108;2023-05-14T09:49:17;1.88;;;1.73;;
37241;SDS011;23135;51.078;12.108;2023-05-14T09:51:43;2.42;;;2.00;;
37241;SDS011;23135;51.078;12.108;2023-05-14T09:54:09;4.38;;;2.60;;
37241;SDS011;23135;51.078;12.108;2023-05-14T09:56:35;3.53;;;2.92;;
37241;SDS011;23135;51.078;12.108;2023-05-14T09:59:02;3.30;;;1.98;;
37241;SDS011;23135;51.078;12.108;2023-05-14T10:01:28;2.72;;;2.58;;
37241;SDS011;23135;51.078;12.108;2023-05-14T10:03:54;6.55;;;2.50;;
37241;SDS011;23135;51.078;12.108;2023-05-14T10:06:22;2.22;;;1.45;;
37241;SDS011;23135;51.078;12.108;2023-05-14T10:08:51;3.60;;;2.28;;
37241;SDS011;23135;51.078;12.108;2023-05-14T10:11:21;6.45;;;1.83;;
37241;SDS011;23135;51.078;12.108;2023-05-14T10:14:02;2.35;;;1.95;;
37241;SDS011;23135;51.078;12.108;2023-05-14T10:16:33;1.98;;;1.88;;
37241;SDS011;23135;51.078;12.108;2023-05-14T10:19:07;2.20;;;2.08;;
37241;SDS011;23135;51.078;12.108;2023-05-14T10:21:35;4.38;;;2.00;;
37241;SDS011;23135;51.078;12.108;2023-05-14T10:24:02;2.85;;;1.70;;
37241;SDS011;23135;51.078;12.108;2023-05-14T10:26:29;3.38;;;1.85;;
37241;SDS011;23135;51.078;12.108;2023-05-14T10:29:01;3.83;;;2.38;;
37241;SDS011;23135;51.078;12.108;2023-05-14T10:37:09;1.65;;;1.55;;
37241;SDS011;23135;51.078;12.108;2023-05-14T10:42:21;1.88;;;1.73;;
37241;SDS011;23135;51.078;12.108;2023-05-14T10:44:56;5.95;;;1.77;;
37241;SDS011;23135;51.078;12.108;2023-05-14T10:47:25;6.15;;;1.52;;
37241;SDS011;23135;51.078;12.108;2023-05-14T10:49:56;1.83;;;1.60;;
37241;SDS011;23135;51.078;12.108;2023-05-14T10:52:23;2.20;;;1.40;;
37241;SDS011;23135;51.078;12.108;2023-05-14T10:54:59;3.17;;;1.85;;
37241;SDS011;23135;51.078;12.108;2023-05-14T10:57:26;4.00;;;1.35;;
37241;SDS011;23135;51.078;12.108;2023-05-14T10:59:54;3.50;;;1.75;;
37241;SDS011;23135;51.078;12.108;2023-05-14T11:04:58;2.35;;;2.15;;
37241;SDS011;23135;51.078;12.108;2023-05-14T11:07:32;2.90;;;1.83;;
37241;SDS011;23135;51.078;12.108;2023-05-14T11:12:28;3.75;;;2.17;;
37241;SDS011;23135;51.078;12.108;2023-05-14T11:14:57;3.15;;;1.80;;
37241;SDS011;23135;51.078;12.108;2023-05-14T11:17:25;2.03;;;1.75;;
37241;SDS011;23135;51.078;12.108;2023-05-14T11:19:51;2.92;;;1.30;;
37241;SDS011;23135;51.078;12.108;2023-05-14T11:22:18;1.58;;;1.13;;
37241;SDS011;23135;51.078;12.108;2023-05-14T11:24:43;6.28;;;1.60;;
37241;SDS011;23135;51.078;12.108;2023-05-14T11:27:09;3.88;;;1.58;;
37241;SDS011;23135;51.078;12.108;2023-05-14T11:29:35;1.80;;;1.70;;
37241;SDS011;23135;51.078;12.108;2023-05-14T11:32:05;4.75;;;1.48;;
37241;SDS011;23135;51.078;12.108;2023-05-14T11:34:31;3.05;;;1.80;;
37241;SDS011;23135;51.078;12.108;2023-05-14T11:37:01;3.05;;;1.40;;
37241;SDS011;23135;51.078;12.108;2023-05-14T11:39:33;6.20;;;2.08;;
37241;SDS011;23135;51.078;12.108;2023-05-14T11:42:01;1.90;;;1.80;;
37241;SDS011;23135;51.078;12.108;2023-05-14T11:44:28;4.13;;;2.22;;
37241;SDS011;23135;51.078;12.108;2023-05-14T11:46:57;1.73;;;1.45;;
37241;SDS011;23135;51.078;12.108;2023-05-14T11:49:23;4.18;;;2.10;;
37241;SDS011;23135;51.078;12.108;2023-05-14T11:51:55;4.10;;;1.77;;
37241;SDS011;23135;51.078;12.108;2023-05-14T11:54:28;5.18;;;1.50;;
37241;SDS011;23135;51.078;12.108;2023-05-14T11:56:54;4.72;;;1.75;;
37241;SDS011;23135;51.078;12.108;2023-05-14T11:59:23;3.05;;;1.35;;
37241;SDS011;23135;51.078;12.108;2023-05-14T12:01:49;3.70;;;1.92;;
37241;SDS011;23135;51.078;12.108;2023-05-14T12:04:17;3.80;;;1.77;;
37241;SDS011;23135;51.078;12.108;2023-05-14T12:06:46;1.95;;;1.00;;
37241;SDS011;23135;51.078;12.108;2023-05-14T12:09:15;4.22;;;1.20;;
37241;SDS011;23135;51.078;12.108;2023-05-14T12:11:42;2.90;;;1.33;;
37241;SDS011;23135;51.078;12.108;2023-05-14T12:14:10;2.80;;;1.27;;
37241;SDS011;23135;51.078;12.108;2023-05-14T12:16:41;4.30;;;1.20;;
37241;SDS011;23135;51.078;12.108;2023-05-14T12:19:08;7.70;;;1.77;;
37241;SDS011;23135;51.078;12.108;2023-05-14T12:21:35;1.50;;;0.82;;
37241;SDS011;23135;51.078;12.108;2023-05-14T12:24:01;5.07;;;0.90;;
37241;SDS011;23135;51.078;12.108;2023-05-14T12:26:27;1.10;;;1.10;;
37241;SDS011;23135;51.078;12.108;2023-05-14T12:29:00;1.35;;;0.85;;
37241;SDS011;23135;51.078;12.108;2023-05-14T12:31:31;0.77;;;0.70;;
37241;SDS011;23135;51.078;12.108;2023-05-14T12:34:02;1.60;;;1.17;;
37241;SDS011;23135;51.078;12.108;2023-05-14T12:36:28;2.72;;;1.02;;
37241;SDS011;23135;51.078;12.108;2023-05-14T12:39:00;1.63;;;0.70;;
37241;SDS011;23135;51.078;12.108;2023-05-14T12:41:27;3.47;;;1.42;;
37241;SDS011;23135;51.078;12.108;2023-05-14T12:43:56;0.60;;;0.55;;
37241;SDS011;23135;51.078;12.108;2023-05-14T12:46:22;2.17;;;0.65;;
37241;SDS011;23135;51.078;12.108;2023-05-14T12:48:51;1.02;;;0.63;;
37241;SDS011;23135;51.078;12.108;2023-05-14T12:51:17;0.73;;;0.73;;
37241;SDS011;23135;51.078;12.108;2023-05-14T12:53:42;2.60;;;0.40;;
37241;SDS011;23135;51.078;12.108;2023-05-14T12:56:08;1.08;;;0.68;;
37241;SDS011;23135;51.078;12.108;2023-05-14T12:58:34;0.38;;;0.38;;
37241;SDS011;23135;51.078;12.108;2023-05-14T13:00:59;3.60;;;0.52;;
37241;SDS011;23135;51.078;12.108;2023-05-14T13:03:25;5.25;;;0.80;;
37241;SDS011;23135;51.078;12.108;2023-05-14T13:05:51;1.27;;;0.55;;
37241;SDS011;23135;51.078;12.108;2023-05-14T13:08:18;3.03;;;0.68;;
37241;SDS011;23135;51.078;12.108;2023-05-14T13:10:45;4.07;;;3.70;;
37241;SDS011;23135;51.078;12.108;2023-05-14T13:13:12;3.05;;;0.40;;
37241;SDS011;23135;51.078;12.108;2023-05-14T13:15:39;0.60;;;0.60;;
37241;SDS011;23135;51.078;12.108;2023-05-14T13:18:04;0.88;;;0.88;;
37241;SDS011;23135;51.078;12.108;2023-05-14T13:20:30;1.90;;;0.50;;
37241;SDS011;23135;51.078;12.108;2023-05-14T13:22:57;0.82;;;0.22;;
37241;SDS011;23135;51.078;12.108;2023-05-14T13:25:22;2.92;;;1.08;;
37241;SDS011;23135;51.078;12.108;2023-05-14T13:27:48;1.48;;;0.47;;
37241;SDS011;23135;51.078;12.108;2023-05-14T13:30:17;0.85;;;0.77;;
37241;SDS011;23135;51.078;12.108;2023-05-14T13:32:43;1.77;;;1.08;;
37241;SDS011;23135;51.078;12.108;2023-05-14T13:35:08;1.70;;;0.75;;
37241;SDS011;23135;51.078;12.108;2023-05-14T13:37:34;0.57;;;0.57;;
37241;SDS011;23135;51.078;12.108;2023-05-14T13:40:00;0.95;;;0.55;;
37241;SDS011;23135;51.078;12.108;2023-05-14T13:42:28;1.35;;;0.57;;
37241;SDS011;23135;51.078;12.108;2023-05-14T13:44:54;1.65;;;1.08;;
37241;SDS011;23135;51.078;12.108;2023-05-14T13:47:20;3.67;;;3.40;;
37241;SDS011;23135;51.078;12.108;2023-05-14T13:49:45;1.08;;;1.05;;
37241;SDS011;23135;51.078;12.108;2023-05-14T13:52:11;3.10;;;1.35;;
37241;SDS011;23135;51.078;12.108;2023-05-14T13:54:37;4.50;;;1.17;;
37241;SDS011;23135;51.078;12.108;2023-05-14T13:57:02;1.42;;;1.30;;
37241;SDS011;23135;51.078;12.108;2023-05-14T13:59:28;1.23;;;1.17;;
37241;SDS011;23135;51.078;12.108;2023-05-14T14:01:54;7.47;;;1.15;;
37241;SDS011;23135;51.078;12.108;2023-05-14T14:04:19;5.65;;;0.98;;
37241;SDS011;23135;51.078;12.108;2023-05-14T14:06:46;1.10;;;1.10;;
37241;SDS011;23135;51.078;12.108;2023-05-14T14:09:11;5.28;;;1.10;;
37241;SDS011;23135;51.078;12.108;2023-05-14T14:11:37;2.58;;;1.05;;
37241;SDS011;23135;51.078;12.108;2023-05-14T14:14:03;1.00;;;0.57;;
37241;SDS011;23135;51.078;12.108;2023-05-14T14:16:29;1.77;;;0.90;;
37241;SDS011;23135;51.078;12.108;2023-05-14T14:18:54;1.45;;;1.13;;
37241;SDS011;23135;51.078;12.108;2023-05-14T14:21:21;6.78;;;1.27;;
37241;SDS011;23135;51.078;12.108;2023-05-14T14:23:46;1.38;;;0.90;;
37241;SDS011;23135;51.078;12.108;2023-05-14T14:26:12;1.10;;;0.70;;
37241;SDS011;23135;51.078;12.108;2023-05-14T14:28:38;3.08;;;0.65;;
37241;SDS011;23135;51.078;12.108;2023-05-14T14:31:04;0.88;;;0.65;;
37241;SDS011;23135;51.078;12.108;2023-05-14T14:33:30;2.53;;;0.75;;
37241;SDS011;23135;51.078;12.108;2023-05-14T14:35:56;1.35;;;0.80;;
37241;SDS011;23135;51.078;12.108;2023-05-14T14:38:21;3.67;;;1.08;;
37241;SDS011;23135;51.078;12.108;2023-05-14T14:40:47;0.70;;;0.50;;
37241;SDS011;23135;51.078;12.108;2023-05-14T14:43:12;0.85;;;0.85;;
37241;SDS011;23135;51.078;12.108;2023-05-14T14:45:38;1.80;;;1.08;;